Flight Track Log - Related Links

Times and Time Zones

All times are in EDT time to prevent confusion due to time zone crossing. See the CCA188 flight status page for this flight to view local times or setup timezone preferences in your user account.

Time Position Orientation Groundspeed Altitude Reporting Facility
EDT Latitude Longitude Course Direction KTS MPH feet Rate Location/Type
Thu 07:15:00 AM 25.5135 121.4368 347° North  Level Estimated
Thu 07:16:00 AM 25.6023 121.4137 347° North  Level Estimated
Thu 07:17:00 AM 25.6911 121.3906 347° North  Level Estimated
Thu 07:18:00 AM 25.7798 121.3675 347° North  Level Estimated
Thu 07:19:00 AM 25.8686 121.3443 347° North  Level Estimated
Thu 07:20:00 AM 25.9574 121.3211 347° North  Level Estimated
Thu 07:21:00 AM 26.0462 121.2979 347° North  Level Estimated
Thu 07:22:00 AM 26.1350 121.2746 347° North  Level Estimated
Thu 07:23:00 AM 26.2237 121.2513 347° North  Level Estimated
Thu 07:24:00 AM 26.3125 121.2279 347° North  Level Estimated
Thu 07:25:00 AM 26.4013 121.2045 347° North  Level Estimated
Thu 07:26:00 AM 26.4900 121.1811 347° North  Level Estimated
Thu 07:27:00 AM 26.5788 121.1577 347° North  Level Estimated
Thu 07:28:00 AM 26.6675 121.1342 347° North  Level Estimated
Thu 07:29:00 AM 26.7563 121.1106 347° North  Level Estimated
Thu 07:30:00 AM 26.8450 121.0871 347° North  Level Estimated
Thu 07:31:00 AM 26.9337 121.0635 347° North  Level Estimated
Thu 07:32:00 AM 27.0225 121.0398 347° North  Level Estimated
Thu 07:33:00 AM 27.1112 121.0161 347° North  Level Estimated
Thu 07:34:00 AM 27.1999 120.9924 347° North  Level Estimated
Thu 07:35:00 AM 27.2887 120.9687 347° North  Level Estimated
Thu 07:36:00 AM 27.3774 120.9449 347° North  Level Estimated
Thu 07:37:00 AM 27.4661 120.9210 347° North  Level Estimated
Thu 07:38:00 AM 27.5548 120.8972 347° North  Level Estimated
Thu 07:39:00 AM 27.6435 120.8733 347° North  Level Estimated
Thu 07:40:00 AM 27.7322 120.8493 347° North  Level Estimated
Thu 07:41:00 AM 27.8209 120.8253 347° North  Level Estimated
Thu 07:42:00 AM 27.9096 120.8013 347° North  Level Estimated
Thu 07:43:00 AM 27.9983 120.7772 347° North  Level Estimated
Thu 07:44:00 AM 28.0870 120.7531 347° North  Level Estimated
Thu 07:45:00 AM 28.1756 120.7290 347° North  Level Estimated
Thu 07:46:00 AM 28.2643 120.7048 346° North  Level Estimated
Thu 07:47:00 AM 28.3530 120.6806 346° North  Level Estimated
Thu 07:48:00 AM 28.4417 120.6563 346° North  Level Estimated
Thu 07:49:00 AM 28.5303 120.6320 346° North  Level Estimated
Thu 07:51:00 AM 28.7076 120.5833 346° North  Level Estimated
Thu 07:52:00 AM 28.7963 120.5588 346° North  Level Estimated
Thu 07:53:00 AM 28.8850 120.5344 346° North  Level Estimated
Thu 07:54:00 AM 28.9736 120.5098 346° North  Level Estimated
Thu 07:55:00 AM 29.0622 120.4853 346° North  Level Estimated
Thu 07:56:00 AM 29.1509 120.4607 346° North  Level Estimated
Thu 07:57:00 AM 29.2395 120.4361 346° North  Level Estimated
Thu 07:58:00 AM 29.3281 120.4114 346° North  Level Estimated
Thu 07:59:00 AM 29.4167 120.3866 346° North  Level Estimated
Thu 08:00:00 AM 29.5054 120.3619 346° North  Level Estimated
Thu 08:01:00 AM 29.5940 120.3371 346° North  Level Estimated
Thu 08:02:00 AM 29.6826 120.3122 346° North  Level Estimated
Thu 08:03:00 AM 29.7712 120.2873 346° North  Level Estimated
Thu 08:04:00 AM 29.8598 120.2624 346° North  Level Estimated
Thu 08:05:00 AM 29.9484 120.2374 346° North  Level Estimated
Thu 08:06:00 AM 30.0369 120.2123 346° North  Level Estimated
Thu 08:07:00 AM 30.1255 120.1873 346° North  Level Estimated
Thu 08:08:00 AM 30.2141 120.1621 346° North  Level Estimated
Thu 08:09:00 AM 30.3027 120.1370 346° North  Level Estimated
Thu 08:10:00 AM 30.3912 120.1118 346° North  Level Estimated
Thu 08:11:00 AM 30.4798 120.0865 346° North  Level Estimated
Thu 08:12:00 AM 30.5684 120.0612 346° North  Level Estimated
Thu 08:13:00 AM 30.6569 120.0358 346° North  Level Estimated
Thu 08:14:00 AM 30.7455 120.0105 346° North  Level Estimated
Thu 08:15:00 AM 30.8340 119.9850 346° North  Level Estimated
Thu 08:16:00 AM 30.9226 119.9595 346° North  Level Estimated
Thu 08:17:00 AM 31.0111 119.9340 346° North  Level Estimated
Thu 08:18:00 AM 31.0996 119.9084 346° North  Level Estimated
Thu 08:19:00 AM 31.1881 119.8828 346° North  Level Estimated
Thu 08:20:00 AM 31.2766 119.8571 346° North  Level Estimated
Thu 08:21:00 AM 31.3652 119.8313 346° North  Level Estimated
Thu 08:22:00 AM 31.4537 119.8056 346° North  Level Estimated
Thu 08:23:00 AM 31.5422 119.7797 346° North  Level Estimated
Thu 08:24:00 AM 31.6307 119.7539 346° North  Level Estimated
Thu 08:25:00 AM 31.7192 119.7279 346° North  Level Estimated
Thu 08:26:00 AM 31.8076 119.7020 346° North  Level Estimated
Thu 08:27:00 AM 31.8961 119.6759 346° North  Level Estimated
Thu 08:28:00 AM 31.9846 119.6498 346° North  Level Estimated
Thu 08:29:00 AM 32.0731 119.6237 346° North  Level Estimated
Thu 08:30:00 AM 32.1615 119.5975 346° North  Level Estimated
Thu 08:31:00 AM 32.2500 119.5713 346° North  Level Estimated
Thu 08:32:00 AM 32.3385 119.5451 346° North  Level Estimated
Thu 08:33:00 AM 32.4269 119.5187 346° North  Level Estimated
Thu 08:34:00 AM 32.5154 119.4923 346° North  Level Estimated
Thu 08:35:00 AM 32.6038 119.4659 346° North  Level Estimated
Thu 08:36:00 AM 32.6922 119.4394 346° North  Level Estimated
Thu 08:37:00 AM 32.7807 119.4129 346° North  Level Estimated
Thu 08:38:00 AM 32.8691 119.3863 346° North  Level Estimated
Thu 08:39:00 AM 32.9575 119.3596 346° North  Level Estimated
Thu 08:40:00 AM 33.0459 119.3329 346° North  Level Estimated
Thu 08:41:00 AM 33.1343 119.3062 346° North  Level Estimated
Thu 08:42:00 AM 33.2227 119.2794 346° North  Level Estimated
Thu 08:43:00 AM 33.3111 119.2525 346° North  Level Estimated
Thu 08:44:00 AM 33.3995 119.2256 346° North  Level Estimated
Thu 08:45:00 AM 33.4879 119.1986 346° North  Level Estimated
Thu 08:46:00 AM 33.5762 119.1716 346° North  Level Estimated
Thu 08:47:00 AM 33.6646 119.1445 346° North  Level Estimated
Thu 08:48:00 AM 33.7530 119.1174 346° North  Level Estimated
Thu 08:49:00 AM 33.8413 119.0902 346° North  Level Estimated
Thu 08:50:00 AM 33.9297 119.0630 346° North  Level Estimated
Thu 08:51:00 AM 34.0180 119.0357 346° North  Level Estimated
Thu 08:52:00 AM 34.1064 119.0083 346° North  Level Estimated
Thu 08:53:00 AM 34.1947 118.9809 346° North  Level Estimated
Thu 08:54:00 AM 34.2830 118.9534 346° North  Level Estimated
Thu 08:55:00 AM 34.3714 118.9259 346° North  Level Estimated
Thu 08:56:00 AM 34.4597 118.8983 346° North  Level Estimated
Thu 08:57:00 AM 34.5480 118.8707 346° North  Level Estimated
Thu 08:58:00 AM 34.6363 118.8429 346° North  Level Estimated
Thu 08:59:00 AM 34.7246 118.8152 346° North  Level Estimated
Thu 09:00:00 AM 34.8129 118.7873 345° North  Level Estimated
Thu 09:01:00 AM 34.9012 118.7595 345° North  Level Estimated
Thu 09:02:00 AM 34.9894 118.7315 345° North  Level Estimated
Thu 09:03:00 AM 35.0777 118.7035 345° North  Level Estimated
Thu 09:04:00 AM 35.1660 118.6754 345° North  Level Estimated
Thu 09:05:00 AM 35.2542 118.6473 345° North  Level Estimated
Thu 09:06:00 AM 35.3425 118.6191 345° North  Level Estimated
Thu 09:07:00 AM 35.4307 118.5909 345° North  Level Estimated
Thu 09:08:00 AM 35.5190 118.5626 345° North  Level Estimated
Thu 09:09:00 AM 35.6072 118.5342 345° North  Level Estimated
Thu 09:10:00 AM 35.6954 118.5057 345° North  Level Estimated
Thu 09:11:00 AM 35.7836 118.4772 345° North  Level Estimated
Thu 09:12:00 AM 35.8719 118.4487 345° North  Level Estimated
Thu 09:13:00 AM 35.9601 118.4201 345° North  Level Estimated
Thu 09:14:00 AM 36.0483 118.3913 345° North  Level Estimated
Thu 09:15:00 AM 36.1365 118.3626 345° North  Level Estimated
Thu 09:16:00 AM 36.2246 118.3338 345° North  Level Estimated
Thu 09:17:00 AM 36.3128 118.3049 345° North  Level Estimated
Thu 09:18:00 AM 36.4010 118.2759 345° North  Level Estimated
Thu 09:19:00 AM 36.4892 118.2469 345° North  Level Estimated
Thu 09:20:00 AM 36.5773 118.2178 345° North  Level Estimated
Thu 09:21:00 AM 36.6655 118.1887 345° North  Level Estimated
Thu 09:22:00 AM 36.7536 118.1595 345° North  Level Estimated
Thu 09:23:00 AM 36.8417 118.1302 345° North  Level Estimated
Thu 09:24:00 AM 36.9299 118.1008 345° North  Level Estimated
Thu 09:25:00 AM 37.0180 118.0714 345° North  Level Estimated
Thu 09:26:00 AM 37.1061 118.0419 345° North  Level Estimated
Thu 09:27:00 AM 37.1942 118.0124 345° North  Level Estimated
Thu 09:28:00 AM 37.2823 117.9827 345° North  Level Estimated
Thu 09:29:00 AM 37.3704 117.9530 345° North  Level Estimated
Thu 09:30:00 AM 37.4585 117.9233 345° North  Level Estimated
Thu 09:31:00 AM 37.5466 117.8934 345° North  Level Estimated
Thu 09:32:00 AM 37.6346 117.8635 345° North  Level Estimated
Thu 09:33:00 AM 37.7227 117.8336 345° North  Level Estimated
Thu 09:34:00 AM 37.8107 117.8035 345° North  Level Estimated
Thu 09:35:00 AM 37.8988 117.7734 345° North  Level Estimated
Thu 09:36:00 AM 37.9868 117.7432 345° North  Level Estimated
Thu 09:37:00 AM 38.0749 117.7129 345° North  Level Estimated
Thu 09:38:00 AM 38.1629 117.6826 345° North  Level Estimated
Thu 09:39:00 AM 38.2509 117.6522 345° North  Level Estimated
Thu 09:40:00 AM 38.3389 117.6217 345° North  Level Estimated
Thu 09:41:00 AM 38.4269 117.5911 345° North  Level Estimated
Thu 09:42:00 AM 38.5149 117.5605 345° North  Level Estimated
Thu 09:43:00 AM 38.6029 117.5298 345° North  Level Estimated
Thu 09:44:00 AM 38.6908 117.4990 345° North  Level Estimated
Thu 09:45:00 AM 38.7788 117.4682 345° North  Level Estimated
Thu 09:46:00 AM 38.8668 117.4372 345° North  Level Estimated
Thu 09:47:00 AM 38.9547 117.4062 345° North  Level Estimated
Thu 09:48:00 AM 39.0427 117.3751 345° North  Level Estimated
Thu 09:49:00 AM 39.1244 117.3462 345° North  Level Estimated
Thu 09:50:00 AM 39.1244 117.3462 North  Level Estimated
Thu 09:51:00 AM 39.1244 117.3462 North  Level Estimated
Thu 09:52:00 AM 39.1244 117.3462 North  Level Estimated
Thu 09:53:00 AM 39.1244 117.3462 North  Level Estimated
Thu 09:54:00 AM 39.1244 117.3462 North  Level Estimated
Thu 09:55:00 AM 39.1244 117.3462 North  Level Estimated
Thu 09:56:00 AM 39.1244 117.3462 North  Level Estimated
Thu 09:57:00 AM 39.1244 117.3462 North  Level Estimated
Thu 09:58:00 AM 39.1244 117.3462 North  Level Estimated
Thu 09:59:00 AM 39.1244 117.3462 North  Level Estimated

Login

Don't have an account? Register now (free) for customized features, flight alerts, and more!